createdAt,value
2023-05-05T00:00:41.288Z,38.95
2023-05-05T00:01:41.337Z,38.93
2023-05-05T00:02:41.511Z,38.94
2023-05-05T00:03:41.579Z,38.94
2023-05-05T00:04:41.601Z,38.94
2023-05-05T00:05:41.676Z,38.94
2023-05-05T00:06:41.766Z,38.93
2023-05-05T00:07:41.856Z,38.93
2023-05-05T00:08:41.934Z,38.90
2023-05-05T00:09:42.024Z,38.97
2023-05-05T00:10:42.113Z,38.91
2023-05-05T00:11:42.190Z,38.91
2023-05-05T00:12:42.408Z,38.91
2023-05-05T00:13:42.369Z,38.94
2023-05-05T00:14:42.465Z,38.90
2023-05-05T00:15:42.568Z,38.89
2023-05-05T00:16:42.665Z,38.93
2023-05-05T00:17:42.737Z,38.89
2023-05-05T00:18:42.802Z,38.90
2023-05-05T00:19:42.894Z,38.87
2023-05-05T00:20:43.000Z,38.90
2023-05-05T00:21:43.055Z,38.87
2023-05-05T00:22:43.151Z,38.91
2023-05-05T00:23:43.305Z,38.89
2023-05-05T00:24:43.314Z,38.90
2023-05-05T00:25:43.416Z,38.89
2023-05-05T00:26:43.487Z,38.87
2023-05-05T00:27:43.658Z,38.84
2023-05-05T00:28:43.663Z,38.89
2023-05-05T00:29:43.748Z,38.89
2023-05-05T00:30:43.834Z,38.89
2023-05-05T00:31:43.972Z,38.90
2023-05-05T00:32:44.043Z,38.86
2023-05-05T00:33:44.089Z,38.84
2023-05-05T00:34:44.171Z,38.86
2023-05-05T00:35:44.305Z,38.91
2023-05-05T00:36:45.356Z,38.91
2023-05-05T00:37:44.426Z,38.84
2023-05-05T00:38:44.513Z,38.87
2023-05-05T00:39:44.602Z,38.91
2023-05-05T00:40:44.815Z,38.87
2023-05-05T00:41:44.764Z,38.84
2023-05-05T00:42:44.853Z,38.87
2023-05-05T00:43:44.932Z,38.88
2023-05-05T00:44:45.034Z,38.86
2023-05-05T00:45:45.095Z,38.87
2023-05-05T00:46:45.224Z,38.87
2023-05-05T00:47:45.283Z,38.86
2023-05-05T00:48:45.350Z,38.86
2023-05-05T00:49:45.482Z,38.88
2023-05-05T00:50:45.515Z,38.89
2023-05-05T00:51:45.615Z,38.83
2023-05-05T00:52:45.690Z,38.84
2023-05-05T00:53:45.762Z,38.87
2023-05-05T00:54:45.872Z,38.86
2023-05-05T00:55:46.001Z,38.87
2023-05-05T00:56:46.807Z,38.84
2023-05-05T00:57:46.131Z,38.84
2023-05-05T00:58:46.202Z,38.86
2023-05-05T00:59:46.323Z,38.87
2023-05-05T01:00:46.372Z,38.87
2023-05-05T01:01:46.533Z,38.89
2023-05-05T01:02:46.749Z,38.87
2023-05-05T01:03:46.685Z,38.86
2023-05-05T01:04:46.705Z,38.80
2023-05-05T01:05:46.793Z,38.84
2023-05-05T01:06:46.889Z,38.89
2023-05-05T01:07:46.972Z,38.85
2023-05-05T01:08:47.050Z,38.80
2023-05-05T01:09:47.142Z,38.86
2023-05-05T01:10:47.226Z,38.80
2023-05-05T01:11:47.378Z,38.83
2023-05-05T01:12:47.464Z,38.82
2023-05-05T01:13:47.557Z,38.85
2023-05-05T01:14:47.669Z,38.82
2023-05-05T01:15:47.684Z,38.81
2023-05-05T01:16:47.773Z,38.82
2023-05-05T01:17:47.912Z,38.82
2023-05-05T01:18:47.953Z,38.77
2023-05-05T01:19:48.036Z,38.80
2023-05-05T01:20:48.147Z,38.84
2023-05-05T01:21:48.234Z,38.88
2023-05-05T01:22:48.331Z,38.78
2023-05-05T01:23:48.470Z,38.82
2023-05-05T01:24:48.508Z,38.82
2023-05-05T01:25:48.593Z,38.80
2023-05-05T01:26:48.686Z,38.81
2023-05-05T01:27:48.772Z,38.80
2023-05-05T01:28:48.870Z,38.79
2023-05-05T01:29:48.975Z,38.81
2023-05-05T01:30:49.053Z,38.78
2023-05-05T01:31:49.185Z,38.76
2023-05-05T01:32:49.263Z,38.72
2023-05-05T01:33:49.311Z,38.73
2023-05-05T01:34:49.392Z,38.76
2023-05-05T01:35:49.490Z,38.73
2023-05-05T01:36:49.564Z,38.73
2023-05-05T01:37:49.661Z,38.73
2023-05-05T01:38:49.725Z,38.69
2023-05-05T01:39:49.844Z,38.71
2023-05-05T01:40:49.908Z,38.70
2023-05-05T01:41:49.988Z,38.67
2023-05-05T01:42:50.079Z,38.68
2023-05-05T01:43:50.158Z,38.68
2023-05-05T01:44:50.249Z,38.65
2023-05-05T01:45:50.438Z,38.67
2023-05-05T01:46:50.436Z,38.67
2023-05-05T01:47:50.534Z,38.64
2023-05-05T01:48:50.629Z,38.65
2023-05-05T01:49:50.731Z,38.61
2023-05-05T01:50:50.814Z,38.66
2023-05-05T01:51:50.910Z,38.69
2023-05-05T01:52:51.340Z,38.69
2023-05-05T01:53:51.087Z,38.68
2023-05-05T01:54:51.179Z,38.65
2023-05-05T01:55:51.259Z,38.62
2023-05-05T01:56:51.835Z,38.66
2023-05-05T01:57:51.442Z,38.65
2023-05-05T01:58:51.543Z,38.65
2023-05-05T01:59:51.640Z,38.67
2023-05-05T02:00:51.755Z,38.68
2023-05-05T02:01:51.903Z,38.65
2023-05-05T02:02:51.952Z,38.64
2023-05-05T02:03:51.985Z,38.69
2023-05-05T02:04:52.071Z,38.61
2023-05-05T02:05:52.169Z,38.66
2023-05-05T02:06:52.231Z,38.65
2023-05-05T02:07:52.328Z,38.65
2023-05-05T02:08:52.378Z,38.69
2023-05-05T02:09:52.452Z,38.69
2023-05-05T02:10:52.527Z,38.67
2023-05-05T02:11:52.704Z,38.65
2023-05-05T02:12:52.791Z,38.65
2023-05-05T02:13:52.795Z,38.64
2023-05-05T02:14:52.868Z,38.65
2023-05-05T02:15:53.011Z,38.66
2023-05-05T02:16:53.099Z,38.64
2023-05-05T02:17:53.219Z,38.62
2023-05-05T02:18:53.176Z,38.62
2023-05-05T02:19:53.289Z,38.64
2023-05-05T02:20:53.371Z,38.58
2023-05-05T02:21:53.452Z,38.62
2023-05-05T02:22:53.518Z,38.65
2023-05-05T02:23:53.610Z,38.66
2023-05-05T02:24:53.660Z,38.57
2023-05-05T02:25:53.773Z,38.65
2023-05-05T02:26:53.846Z,38.61
2023-05-05T02:27:53.954Z,38.61
2023-05-05T02:28:54.040Z,38.62
2023-05-05T02:29:54.111Z,38.57
2023-05-05T02:30:56.889Z,38.61
2023-05-05T02:31:54.234Z,38.60
2023-05-05T02:32:54.335Z,38.57
2023-05-05T02:33:54.280Z,38.57
2023-05-05T02:34:54.309Z,38.57
2023-05-05T02:35:54.330Z,38.61
2023-05-05T02:36:54.357Z,38.57
2023-05-05T02:37:54.379Z,38.57
2023-05-05T02:38:54.412Z,38.57
2023-05-05T02:39:54.414Z,38.55
2023-05-05T02:40:54.455Z,38.57
2023-05-05T02:41:54.530Z,38.56
2023-05-05T02:42:54.577Z,38.57
2023-05-05T02:43:54.523Z,38.56
2023-05-05T02:44:54.549Z,38.60
2023-05-05T02:45:54.568Z,38.58
2023-05-05T02:46:54.728Z,38.56
2023-05-05T02:47:54.639Z,38.57
2023-05-05T02:48:54.623Z,38.56
2023-05-05T02:49:54.643Z,38.55
2023-05-05T02:50:54.669Z,38.53
2023-05-05T02:51:54.709Z,38.57
2023-05-05T02:52:54.709Z,38.57
2023-05-05T02:53:54.739Z,38.56
2023-05-05T02:54:54.831Z,38.56
2023-05-05T02:55:54.773Z,38.56
2023-05-05T02:56:54.795Z,38.56
2023-05-05T02:57:54.808Z,38.58
2023-05-05T02:58:54.824Z,38.50
2023-05-05T02:59:54.844Z,38.55
2023-05-05T03:00:54.930Z,38.53
2023-05-05T03:01:54.933Z,38.52
2023-05-05T03:02:55.005Z,38.49
2023-05-05T03:03:54.975Z,38.56
2023-05-05T03:04:54.987Z,38.53
2023-05-05T03:05:54.965Z,38.55
2023-05-05T03:06:55.007Z,38.46
2023-05-05T03:07:55.373Z,38.53
2023-05-05T03:08:55.040Z,38.56
2023-05-05T03:09:55.051Z,38.53
2023-05-05T03:10:55.085Z,38.53
2023-05-05T03:11:55.105Z,38.53
2023-05-05T03:12:55.184Z,38.59
2023-05-05T03:13:55.172Z,38.58
2023-05-05T03:14:55.882Z,38.49
2023-05-05T03:15:55.354Z,38.57
2023-05-05T03:16:55.406Z,38.53
2023-05-05T03:17:55.578Z,38.53
2023-05-05T03:18:55.520Z,38.50
2023-05-05T03:19:55.611Z,38.51
2023-05-05T03:20:55.715Z,38.54
2023-05-05T03:21:55.790Z,38.53
2023-05-05T03:22:56.867Z,38.54
2023-05-05T03:23:55.965Z,38.48
2023-05-05T03:24:56.025Z,38.48
2023-05-05T03:25:56.086Z,38.48
2023-05-05T03:26:56.165Z,38.49
2023-05-05T03:27:56.238Z,38.51
2023-05-05T03:28:56.304Z,38.54
2023-05-05T03:29:56.471Z,38.53
2023-05-05T03:30:56.473Z,38.50
2023-05-05T03:31:56.567Z,38.51
2023-05-05T03:32:56.629Z,38.50
2023-05-05T03:33:56.645Z,38.55
2023-05-05T03:34:56.789Z,38.51
2023-05-05T03:35:56.828Z,38.52
2023-05-05T03:36:56.826Z,38.55
2023-05-05T03:37:56.914Z,38.51
2023-05-05T03:38:56.968Z,38.51
2023-05-05T03:39:57.032Z,38.49
2023-05-05T03:40:57.106Z,38.51
2023-05-05T03:41:57.169Z,38.55
2023-05-05T03:42:57.226Z,38.52
2023-05-05T03:43:57.300Z,38.52
2023-05-05T03:44:57.366Z,38.46
2023-05-05T03:45:57.494Z,38.53
2023-05-05T03:46:57.631Z,38.50
2023-05-05T03:47:57.639Z,38.51
2023-05-05T03:48:57.718Z,38.47
2023-05-05T03:49:57.795Z,38.49
2023-05-05T03:50:57.844Z,38.52
2023-05-05T03:51:57.895Z,38.52
2023-05-05T03:52:57.963Z,38.49
2023-05-05T03:53:57.991Z,38.55
2023-05-05T03:54:58.025Z,38.52
2023-05-05T03:55:58.064Z,38.55
2023-05-05T03:56:58.113Z,38.49
2023-05-05T03:57:58.168Z,38.55
2023-05-05T03:58:58.237Z,38.57
2023-05-05T03:59:58.277Z,38.49
2023-05-05T04:00:58.330Z,38.49
2023-05-05T04:01:58.355Z,38.48
2023-05-05T04:02:58.469Z,38.51
2023-05-05T04:03:58.404Z,38.49
2023-05-05T04:04:58.416Z,38.52
2023-05-05T04:05:58.435Z,38.48
2023-05-05T04:06:58.486Z,38.52
2023-05-05T04:07:58.498Z,38.49
2023-05-05T04:08:58.517Z,38.50
2023-05-05T04:09:58.564Z,38.48
2023-05-05T04:10:58.923Z,38.51
2023-05-05T04:11:58.618Z,38.51
2023-05-05T04:12:58.698Z,38.51
2023-05-05T04:13:58.676Z,38.49
2023-05-05T04:14:58.707Z,38.47
2023-05-05T04:15:58.738Z,38.53
2023-05-05T04:16:58.745Z,38.49
2023-05-05T04:17:58.842Z,38.53
2023-05-05T04:18:58.792Z,38.51
2023-05-05T04:19:58.825Z,38.52
2023-05-05T04:20:58.852Z,38.53
2023-05-05T04:21:58.851Z,38.45
2023-05-05T04:22:58.885Z,38.49
2023-05-05T04:23:58.961Z,38.48
2023-05-05T04:24:58.937Z,38.51
2023-05-05T04:25:59.002Z,38.48
2023-05-05T04:26:59.016Z,38.46
2023-05-05T04:27:59.061Z,38.49
2023-05-05T04:28:59.100Z,38.48
2023-05-05T04:29:59.152Z,38.53
2023-05-05T04:30:59.180Z,38.45
2023-05-05T04:31:59.194Z,38.50
2023-05-05T04:32:59.249Z,38.48
2023-05-05T04:33:59.250Z,38.46
2023-05-05T04:34:59.290Z,38.48
2023-05-05T04:35:59.318Z,38.45
2023-05-05T04:36:59.350Z,38.48
2023-05-05T04:37:59.367Z,38.49
2023-05-05T04:38:59.494Z,38.46
2023-05-05T04:39:59.408Z,38.45
2023-05-05T04:40:59.456Z,38.45
2023-05-05T04:41:59.456Z,38.46
2023-05-05T04:42:59.500Z,38.42
2023-05-05T04:43:59.527Z,38.45
2023-05-05T04:44:59.618Z,38.49
2023-05-05T04:45:59.579Z,38.45
2023-05-05T04:46:59.607Z,38.49
2023-05-05T04:47:59.762Z,38.46
2023-05-05T04:48:59.661Z,38.49
2023-05-05T04:49:59.694Z,38.50
2023-05-05T04:50:59.729Z,38.45
2023-05-05T04:51:59.763Z,38.42
2023-05-05T04:52:59.869Z,38.51
2023-05-05T04:53:59.851Z,38.46
2023-05-05T04:54:59.926Z,38.41
2023-05-05T04:55:59.881Z,38.42
2023-05-05T04:56:59.905Z,38.44
2023-05-05T04:57:59.955Z,38.37
2023-05-05T04:58:59.969Z,38.42
2023-05-05T04:59:59.983Z,38.45
2023-05-05T05:01:00.005Z,38.47
2023-05-05T05:02:00.085Z,38.42
2023-05-05T05:03:00.150Z,38.47
2023-05-05T05:04:00.340Z,38.47
2023-05-05T05:05:00.160Z,38.47
2023-05-05T05:06:00.150Z,38.45
2023-05-05T05:07:00.170Z,38.41
2023-05-05T05:08:00.203Z,38.46
2023-05-05T05:09:00.225Z,38.39
2023-05-05T05:10:00.260Z,38.44
2023-05-05T05:11:00.292Z,38.41
2023-05-05T05:12:00.314Z,38.43
2023-05-05T05:13:00.373Z,38.44
2023-05-05T05:14:00.361Z,38.45
2023-05-05T05:15:00.512Z,38.43
2023-05-05T05:16:00.551Z,38.41
2023-05-05T05:17:00.468Z,38.42
2023-05-05T05:18:00.521Z,38.38
2023-05-05T05:19:01.798Z,37.86
2023-05-05T05:20:01.559Z,37.49
2023-05-05T05:21:00.596Z,37.38
2023-05-05T05:22:00.668Z,37.77
2023-05-05T05:23:00.654Z,37.92
2023-05-05T05:24:00.892Z,37.67
2023-05-05T05:25:00.697Z,38.11
2023-05-05T05:26:00.733Z,38.30
2023-05-05T05:27:00.761Z,37.54
2023-05-05T05:28:09.448Z,36.74
2023-05-05T05:29:01.824Z,37.97
2023-05-05T05:30:01.139Z,38.17
2023-05-05T05:31:00.886Z,38.09
2023-05-05T05:32:01.093Z,37.82
2023-05-05T05:33:00.961Z,35.84
2023-05-05T05:34:01.198Z,35.46
2023-05-05T05:35:01.024Z,33.87
2023-05-05T05:36:01.073Z,34.19
2023-05-05T05:37:01.183Z,33.68
2023-05-05T05:38:01.177Z,33.53
2023-05-05T05:39:01.209Z,34.17
2023-05-05T05:40:01.265Z,34.66
2023-05-05T05:41:01.319Z,34.68
2023-05-05T05:42:01.445Z,34.78
2023-05-05T05:43:01.586Z,34.19
2023-05-05T05:44:01.683Z,34.19
2023-05-05T05:45:01.795Z,34.42
2023-05-05T05:46:01.947Z,34.75
2023-05-05T05:47:02.002Z,35.08
2023-05-05T05:48:02.156Z,34.92
2023-05-05T05:49:02.242Z,35.36
2023-05-05T05:50:02.309Z,35.67
2023-05-05T05:51:02.423Z,35.59
2023-05-05T05:52:02.519Z,35.47
2023-05-05T05:53:02.618Z,35.92
2023-05-05T05:54:02.717Z,36.36
2023-05-05T05:55:02.823Z,35.35
2023-05-05T05:56:03.851Z,35.54
2023-05-05T05:57:03.030Z,35.43
2023-05-05T05:58:03.105Z,35.70
2023-05-05T05:59:03.190Z,34.81
2023-05-05T06:00:03.281Z,34.69
2023-05-05T06:01:03.372Z,34.34
2023-05-05T06:02:03.484Z,35.20
2023-05-05T06:03:03.581Z,34.79
2023-05-05T06:04:03.744Z,35.57
2023-05-05T06:05:04.447Z,34.63
2023-05-05T06:06:03.841Z,34.54
2023-05-05T06:07:03.946Z,33.67
2023-05-05T06:08:04.055Z,34.44
2023-05-05T06:09:04.177Z,35.28
2023-05-05T06:10:18.676Z,34.48
2023-05-05T06:11:05.324Z,35.64
2023-05-05T06:12:04.355Z,35.18
2023-05-05T06:13:04.447Z,35.31
2023-05-05T06:14:04.454Z,35.25
2023-05-05T06:15:04.504Z,34.61
2023-05-05T06:16:04.571Z,33.71
2023-05-05T06:17:04.613Z,33.85
2023-05-05T06:18:04.783Z,34.23
2023-05-05T06:19:04.709Z,33.69
2023-05-05T06:20:04.819Z,33.52
2023-05-05T06:21:04.912Z,33.96
2023-05-05T06:22:05.020Z,33.94
2023-05-05T06:23:05.152Z,34.90
2023-05-05T06:24:05.274Z,34.00
2023-05-05T06:25:07.929Z,33.82
2023-05-05T06:26:05.643Z,35.11
2023-05-05T06:27:05.764Z,35.64
2023-05-05T06:28:05.942Z,35.78
2023-05-05T06:29:05.951Z,35.74
2023-05-05T06:30:06.191Z,35.71
2023-05-05T06:31:06.103Z,35.89
2023-05-05T06:32:06.142Z,35.98
2023-05-05T06:33:06.278Z,35.90
2023-05-05T06:34:06.350Z,35.87
2023-05-05T06:35:06.421Z,35.97
2023-05-05T06:36:06.496Z,36.12
2023-05-05T06:37:06.698Z,36.18
2023-05-05T06:38:06.659Z,36.24
2023-05-05T06:39:06.642Z,36.36
2023-05-05T06:40:06.931Z,36.32
2023-05-05T06:41:07.467Z,36.35
2023-05-05T06:42:06.748Z,36.43
2023-05-05T06:43:06.789Z,36.58
2023-05-05T06:44:06.867Z,36.66
2023-05-05T06:45:06.945Z,36.78
2023-05-05T06:46:07.001Z,36.81
2023-05-05T06:47:07.161Z,37.07
2023-05-05T06:48:07.264Z,37.06
2023-05-05T06:49:08.026Z,37.17
2023-05-05T06:50:07.542Z,37.26
2023-05-05T06:51:07.415Z,37.40
2023-05-05T06:52:07.485Z,37.48
2023-05-05T06:53:07.545Z,37.62
2023-05-05T06:54:07.630Z,37.73
2023-05-05T06:55:07.708Z,37.77
2023-05-05T06:56:07.774Z,37.92
2023-05-05T06:57:07.848Z,38.12
2023-05-05T06:58:07.905Z,38.09
2023-05-05T06:59:07.965Z,38.19
2023-05-05T07:00:08.319Z,38.22
2023-05-05T07:01:08.234Z,38.30
2023-05-05T07:02:08.166Z,38.46
2023-05-05T07:03:08.249Z,38.38
2023-05-05T07:04:08.361Z,38.63
2023-05-05T07:05:08.328Z,38.74
2023-05-05T07:06:08.378Z,38.81
2023-05-05T07:07:08.446Z,38.93
2023-05-05T07:08:08.465Z,39.09
2023-05-05T07:09:08.532Z,39.20
2023-05-05T07:10:08.753Z,39.28
2023-05-05T07:11:08.603Z,39.34
2023-05-05T07:12:08.903Z,39.54
2023-05-05T07:13:08.702Z,39.54
2023-05-05T07:14:08.727Z,39.62
2023-05-05T07:15:23.475Z,39.87
2023-05-05T07:16:09.796Z,39.81
2023-05-05T07:17:08.899Z,40.00
2023-05-05T07:18:08.895Z,39.48
2023-05-05T07:19:08.993Z,39.47
2023-05-05T07:20:09.132Z,39.29
2023-05-05T07:21:08.836Z,39.29
2023-05-05T07:22:08.847Z,39.50
2023-05-05T07:23:08.849Z,39.59
2023-05-05T07:24:08.870Z,39.73
2023-05-05T07:25:08.877Z,39.87
2023-05-05T07:26:08.897Z,40.06
2023-05-05T07:27:08.923Z,40.39
2023-05-05T07:28:08.933Z,40.52
2023-05-05T07:29:08.912Z,40.61
2023-05-05T07:30:13.018Z,40.87
2023-05-05T07:31:09.970Z,41.08
2023-05-05T07:32:09.039Z,41.19
2023-05-05T07:33:09.058Z,41.28
2023-05-05T07:34:08.973Z,41.49
2023-05-05T07:35:09.024Z,41.83
2023-05-05T07:36:08.969Z,42.08
2023-05-05T07:37:09.898Z,42.16
2023-05-05T07:38:10.894Z,42.33
2023-05-05T07:39:08.996Z,42.48
2023-05-05T07:40:09.359Z,42.55
2023-05-05T07:41:09.013Z,42.76
2023-05-05T07:42:09.012Z,42.97
2023-05-05T07:43:09.015Z,43.10
2023-05-05T07:44:09.014Z,43.35
2023-05-05T07:45:09.023Z,43.39
2023-05-05T07:46:09.265Z,43.60
2023-05-05T07:47:09.014Z,43.87
2023-05-05T07:48:09.129Z,44.01
2023-05-05T07:49:09.139Z,44.15
2023-05-05T07:50:09.350Z,44.16
2023-05-05T07:51:09.017Z,44.27
2023-05-05T07:52:09.031Z,44.30
2023-05-05T07:53:14.496Z,44.39
2023-05-05T07:54:11.032Z,44.52
2023-05-05T07:55:09.015Z,44.72
2023-05-05T07:56:09.103Z,44.70
2023-05-05T07:57:09.035Z,44.79
2023-05-05T07:58:09.062Z,44.96
2023-05-05T07:59:09.036Z,45.09
2023-05-05T08:00:11.996Z,45.37
2023-05-05T08:01:09.037Z,45.51
2023-05-05T08:02:09.034Z,45.60
2023-05-05T08:03:11.688Z,45.75
2023-05-05T08:04:09.638Z,45.86
2023-05-05T08:05:09.822Z,45.92
2023-05-05T08:06:09.054Z,46.24
2023-05-05T08:07:09.051Z,46.30
2023-05-05T08:08:09.086Z,46.31
2023-05-05T08:09:09.051Z,46.29
2023-05-05T08:10:09.055Z,46.47
2023-05-05T08:11:09.070Z,46.65
2023-05-05T08:12:09.047Z,46.59
2023-05-05T08:13:09.081Z,46.57
2023-05-05T08:14:09.064Z,46.63
2023-05-05T08:15:09.354Z,43.49
2023-05-05T08:16:09.172Z,44.43
2023-05-05T08:17:09.110Z,43.21
2023-05-05T08:18:09.114Z,42.67
2023-05-05T08:19:21.173Z,41.75
2023-05-05T08:20:11.018Z,42.44
2023-05-05T08:21:10.007Z,42.35
2023-05-05T08:22:09.172Z,42.19
2023-05-05T08:23:09.189Z,42.18
2023-05-05T08:24:09.208Z,42.14
2023-05-05T08:25:09.337Z,42.19
2023-05-05T08:26:09.233Z,42.20
2023-05-05T08:27:09.237Z,42.21
2023-05-05T08:28:09.269Z,42.22
2023-05-05T08:29:09.496Z,42.30
2023-05-05T08:30:09.274Z,42.33
2023-05-05T08:31:09.330Z,42.38
2023-05-05T08:32:09.314Z,42.43
2023-05-05T08:33:09.344Z,42.51
2023-05-05T08:34:09.334Z,42.50
2023-05-05T08:35:09.531Z,42.63
2023-05-05T08:36:09.401Z,42.57
2023-05-05T08:37:09.360Z,42.57
2023-05-05T08:38:12.009Z,42.61
2023-05-05T08:39:10.427Z,42.60
2023-05-05T08:40:09.678Z,42.61
2023-05-05T08:41:10.516Z,42.63
2023-05-05T08:42:09.712Z,42.64
2023-05-05T08:43:09.753Z,42.67
2023-05-05T08:44:09.761Z,42.65
2023-05-05T08:45:10.689Z,42.68
2023-05-05T08:46:09.827Z,42.67
2023-05-05T08:47:09.999Z,42.74
2023-05-05T08:48:09.913Z,42.74
2023-05-05T08:49:09.938Z,42.79
2023-05-05T08:50:09.984Z,42.76
2023-05-05T08:51:10.037Z,42.78
2023-05-05T08:52:10.208Z,42.82
2023-05-05T08:53:10.103Z,42.81
2023-05-05T08:54:10.202Z,42.88
2023-05-05T08:55:10.230Z,42.91
2023-05-05T08:56:11.076Z,42.88
2023-05-05T08:57:10.273Z,42.92
2023-05-05T08:58:10.332Z,42.94
2023-05-05T08:59:10.367Z,42.93
2023-05-05T09:00:10.409Z,42.94
2023-05-05T09:01:10.484Z,43.04
2023-05-05T09:02:10.550Z,43.05
2023-05-05T09:03:10.673Z,42.99
2023-05-05T09:04:10.596Z,43.02
2023-05-05T09:05:10.683Z,43.00
2023-05-05T09:06:10.704Z,43.05
2023-05-05T09:07:10.718Z,43.01
2023-05-05T09:08:10.948Z,43.09
2023-05-05T09:09:10.813Z,43.05
2023-05-05T09:10:10.862Z,43.10
2023-05-05T09:11:10.915Z,43.10
2023-05-05T09:12:11.037Z,43.10
2023-05-05T09:13:11.042Z,43.08
2023-05-05T09:14:11.057Z,43.10
2023-05-05T09:15:11.124Z,43.10
2023-05-05T09:16:11.262Z,43.10
2023-05-05T09:17:11.238Z,43.12
2023-05-05T09:18:11.365Z,43.14
2023-05-05T09:19:11.398Z,42.56
2023-05-05T09:20:11.417Z,42.51
2023-05-05T09:21:11.494Z,42.59
2023-05-05T09:22:11.607Z,42.65
2023-05-05T09:23:11.627Z,42.65
2023-05-05T09:24:11.855Z,42.68
2023-05-05T09:25:11.733Z,42.73
2023-05-05T09:26:11.725Z,42.82
2023-05-05T09:27:11.728Z,42.81
2023-05-05T09:28:11.747Z,42.61
2023-05-05T09:29:11.758Z,42.56
2023-05-05T09:30:11.756Z,42.60
2023-05-05T09:31:11.822Z,42.69
2023-05-05T09:32:11.763Z,42.50
2023-05-05T09:33:11.805Z,42.40
2023-05-05T09:34:11.777Z,42.40
2023-05-05T09:35:11.852Z,42.60
2023-05-05T09:36:11.759Z,42.60
2023-05-05T09:37:12.577Z,42.78
2023-05-05T09:38:11.798Z,42.51
2023-05-05T09:39:11.802Z,42.58
2023-05-05T09:40:12.019Z,42.78
2023-05-05T09:41:11.800Z,42.83
2023-05-05T09:42:11.784Z,42.69
2023-05-05T09:43:11.831Z,42.74
2023-05-05T09:44:11.794Z,42.84
2023-05-05T09:45:11.807Z,42.67
2023-05-05T09:46:12.533Z,42.63
2023-05-05T09:47:26.081Z,42.71
2023-05-05T09:48:13.968Z,42.50
2023-05-05T09:49:11.852Z,42.64
2023-05-05T09:50:12.820Z,42.52
2023-05-05T09:51:11.816Z,42.97
2023-05-05T09:52:12.525Z,42.58
2023-05-05T09:53:11.833Z,42.64
2023-05-05T09:54:12.527Z,42.56
2023-05-05T09:55:11.839Z,42.89
2023-05-05T09:56:12.044Z,43.34
2023-05-05T09:57:11.854Z,43.24
2023-05-05T09:58:11.894Z,42.96
2023-05-05T09:59:11.919Z,43.09
2023-05-05T10:00:12.131Z,43.13
2023-05-05T10:01:11.992Z,43.15
2023-05-05T10:02:11.957Z,43.13
2023-05-05T10:03:11.856Z,43.06
2023-05-05T10:04:11.862Z,43.39
2023-05-05T10:05:11.882Z,42.91
2023-05-05T10:06:11.873Z,43.35
2023-05-05T10:07:11.867Z,43.31
2023-05-05T10:08:11.881Z,43.22
2023-05-05T10:09:11.879Z,43.20
2023-05-05T10:10:12.046Z,43.28
2023-05-05T10:11:11.881Z,43.24
2023-05-05T10:12:12.043Z,43.20
2023-05-05T10:13:12.009Z,43.56
2023-05-05T10:14:12.530Z,43.32
2023-05-05T10:15:11.917Z,42.76
2023-05-05T10:16:12.544Z,42.32
2023-05-05T10:17:12.453Z,41.87
2023-05-05T10:18:12.581Z,41.83
2023-05-05T10:19:11.936Z,42.72
2023-05-05T10:20:11.951Z,43.02
2023-05-05T10:21:12.540Z,43.57
2023-05-05T10:22:11.982Z,43.91
2023-05-05T10:23:11.981Z,43.98
2023-05-05T10:24:11.976Z,44.65
2023-05-05T10:25:12.083Z,45.02
2023-05-05T10:26:12.074Z,44.91
2023-05-05T10:27:12.715Z,45.56
2023-05-05T10:28:12.272Z,45.52
2023-05-05T10:29:12.324Z,45.25
2023-05-05T10:30:12.289Z,44.79
2023-05-05T10:31:24.576Z,45.02
2023-05-05T10:32:37.123Z,45.24
2023-05-05T10:33:30.167Z,45.09
2023-05-05T10:34:13.499Z,45.30
2023-05-05T10:35:12.305Z,45.59
2023-05-05T10:36:12.317Z,45.23
2023-05-05T10:37:12.286Z,45.61
2023-05-05T10:38:13.297Z,45.25
2023-05-05T10:39:13.044Z,45.54
2023-05-05T10:40:12.290Z,45.13
2023-05-05T10:41:12.260Z,45.88
2023-05-05T10:42:12.242Z,45.76
2023-05-05T10:43:12.552Z,46.40
2023-05-05T10:44:12.254Z,46.21
2023-05-05T10:45:12.225Z,46.26
2023-05-05T10:46:12.223Z,46.48
2023-05-05T10:47:12.188Z,46.25
2023-05-05T10:48:12.237Z,46.28
2023-05-05T10:49:13.249Z,46.48
2023-05-05T10:50:12.177Z,46.96
2023-05-05T10:51:12.147Z,46.55
2023-05-05T10:52:12.143Z,46.57
2023-05-05T10:53:12.118Z,46.60
2023-05-05T10:54:12.133Z,46.56
2023-05-05T10:55:12.093Z,46.57
2023-05-05T10:56:13.053Z,46.69
2023-05-05T10:57:12.057Z,46.85
2023-05-05T10:58:12.052Z,46.76
2023-05-05T10:59:12.999Z,46.58
2023-05-05T11:00:14.578Z,46.80
2023-05-05T11:01:12.027Z,46.71
2023-05-05T11:02:12.059Z,47.16
2023-05-05T11:03:12.059Z,47.07
2023-05-05T11:04:11.963Z,46.98
2023-05-05T11:05:11.958Z,46.81
2023-05-05T11:06:11.921Z,46.76
2023-05-05T11:07:14.690Z,46.70
2023-05-05T11:08:11.893Z,46.62
2023-05-05T11:09:11.882Z,46.66
2023-05-05T11:10:12.012Z,46.59
2023-05-05T11:11:11.859Z,46.59
2023-05-05T11:12:11.856Z,46.64
2023-05-05T11:13:11.940Z,46.63
2023-05-05T11:14:11.822Z,46.59
2023-05-05T11:15:11.838Z,46.56
2023-05-05T11:16:11.848Z,46.59
2023-05-05T11:17:11.823Z,46.58
2023-05-05T11:18:11.860Z,46.57
2023-05-05T11:19:11.810Z,46.52
2023-05-05T11:20:11.801Z,46.56
2023-05-05T11:21:11.793Z,46.56
2023-05-05T11:22:11.866Z,46.50
2023-05-05T11:23:12.588Z,46.55
2023-05-05T11:24:11.787Z,46.50
2023-05-05T11:25:11.792Z,46.51
2023-05-05T11:26:12.780Z,46.47
2023-05-05T11:27:11.772Z,46.48
2023-05-05T11:28:11.898Z,46.51
2023-05-05T11:29:12.617Z,46.47
2023-05-05T11:30:11.855Z,46.46
2023-05-05T11:31:11.780Z,46.49
2023-05-05T11:32:11.813Z,46.47
2023-05-05T11:33:11.743Z,46.50
2023-05-05T11:34:11.752Z,46.46
2023-05-05T11:35:11.836Z,46.45
2023-05-05T11:36:11.764Z,46.43
2023-05-05T11:37:11.789Z,46.42
2023-05-05T11:38:12.107Z,46.38
2023-05-05T11:39:11.934Z,46.42
2023-05-05T11:40:12.063Z,46.38
2023-05-05T11:41:12.021Z,46.35
2023-05-05T11:42:12.069Z,46.38
2023-05-05T11:43:12.119Z,46.39
2023-05-05T11:44:12.193Z,46.35
2023-05-05T11:45:12.242Z,46.34
2023-05-05T11:46:12.373Z,46.33
2023-05-05T11:47:12.336Z,46.35
2023-05-05T11:48:12.518Z,46.32
2023-05-05T11:49:12.442Z,46.28
2023-05-05T11:50:12.506Z,46.29
2023-05-05T11:51:12.552Z,46.25
2023-05-05T11:52:12.626Z,46.30
2023-05-05T11:53:12.659Z,46.28
2023-05-05T11:54:12.719Z,46.27
2023-05-05T11:55:12.773Z,46.25
2023-05-05T11:56:12.837Z,46.26
2023-05-05T11:57:12.885Z,46.19
2023-05-05T11:58:12.926Z,46.25
2023-05-05T11:59:12.969Z,46.18
2023-05-05T12:00:13.077Z,46.19
2023-05-05T12:01:13.061Z,46.16
2023-05-05T12:02:13.098Z,46.13
2023-05-05T12:03:13.179Z,46.11
2023-05-05T12:04:13.349Z,46.10
2023-05-05T12:05:13.226Z,46.08
2023-05-05T12:06:13.260Z,46.06
2023-05-05T12:07:13.306Z,46.09
2023-05-05T12:08:13.343Z,46.02
2023-05-05T12:09:13.382Z,46.01
2023-05-05T12:10:13.422Z,45.96
2023-05-05T12:11:13.450Z,45.98
2023-05-05T12:12:13.498Z,45.94
2023-05-05T12:13:13.576Z,45.98
2023-05-05T12:14:13.563Z,45.93
2023-05-05T12:15:14.582Z,45.90
2023-05-05T12:16:13.662Z,45.92
2023-05-05T12:17:13.661Z,45.86
2023-05-05T12:18:13.750Z,45.83
2023-05-05T12:19:13.728Z,45.82
2023-05-05T12:20:13.976Z,45.85
2023-05-05T12:21:13.803Z,45.87
2023-05-05T12:22:13.831Z,45.80
2023-05-05T12:23:13.853Z,45.79
2023-05-05T12:24:13.871Z,45.76
2023-05-05T12:25:13.906Z,45.78
2023-05-05T12:26:13.925Z,45.77
2023-05-05T12:27:13.954Z,45.73
2023-05-05T12:28:13.993Z,45.75
2023-05-05T12:29:14.008Z,45.72
2023-05-05T12:30:14.045Z,45.71
2023-05-05T12:31:14.237Z,45.72
2023-05-05T12:32:14.302Z,45.68
2023-05-05T12:33:14.087Z,45.68
2023-05-05T12:34:14.176Z,45.66
2023-05-05T12:35:14.127Z,45.70
2023-05-05T12:36:14.250Z,45.62
2023-05-05T12:37:14.159Z,45.62
2023-05-05T12:38:14.183Z,45.65
2023-05-05T12:39:14.197Z,45.60
2023-05-05T12:40:14.215Z,45.56
2023-05-05T12:41:14.239Z,45.59
2023-05-05T12:42:14.243Z,45.57
2023-05-05T12:43:14.262Z,45.54
2023-05-05T12:44:14.275Z,45.52
2023-05-05T12:45:14.301Z,45.53
2023-05-05T12:46:14.365Z,45.51
2023-05-05T12:47:14.327Z,45.50
2023-05-05T12:48:14.333Z,45.49
2023-05-05T12:49:14.349Z,45.46
2023-05-05T12:50:14.355Z,45.45
2023-05-05T12:51:14.369Z,45.42
2023-05-05T12:52:14.459Z,45.38
2023-05-05T12:53:14.373Z,45.43